Řízení letového provozu České republiky  
Aktualizace dat:  25.04.2015 01:38:12 UTC English version
   METEO Zobrazení stránky:  25.04.2015 01:50:46 UTC  
vysvětlivky
METAR EDDB 250120Z 19004KT CAVOK 09/04 Q1009 NOSIG=
METAR EDDC 250120Z 19009KT CAVOK 10/03 Q1011=
METAR EDDE 250120Z 19009KT CAVOK 10/01 Q1010=
METAR EDDF 250120Z 18001KT CAVOK 06/05 Q1010 NOSIG=
METAR EDDM 250120Z 00000KT CAVOK 03/02 Q1013 NOSIG=
METAR EDDN 250120Z 10003KT 010V140 CAVOK 05/01 Q1012=
METAR EDDP 250120Z 17009KT CAVOK 09/03 Q1010 NOSIG=
METAR EDDT 250120Z 08001KT CAVOK 11/03 Q1009=
METAR EDQM NIL
METAR EPBY 250130Z 00000KT CAVOK 06/03 Q1011 =
METAR EPGD 250130Z 29001KT 8000 NSC 04/04 Q1010 =
METAR EPKK 250130Z 00000KT CAVOK 07/05 Q1014 =
METAR EPKT 250130Z VRB01KT CAVOK 06/04 Q1014 =
METAR EPLL 250130Z 09003KT CAVOK 08/04 Q1012 =
METAR EPPO 250130Z VRB01KT CAVOK 07/02 Q1011 =
METAR EPRZ 250130Z 23003KT CAVOK 10/07 Q1014 =
METAR EPWA 250130Z 17003KT CAVOK 08/05 Q1012 NOSIG=
METAR EPWR 250130Z 16002KT CAVOK 07/05 Q1012 =
METAR LHBP 250130Z VRB02KT CAVOK 05/03 Q1016 NOSIG=
METAR LHSM NIL
METAR LKCV 250100Z 15004KT CAVOK 09/05 Q1013 NOSIG=
METAR LKKB 250100Z 21008KT CAVOK 09/04 Q1013 =
METAR LKKU NIL
METAR LKKV 250100Z VRB01KT CAVOK 05/00 Q1013 RMK REG QNH 1009=
METAR LKLN 250100Z AUTO 00000KT CAVOK 04/01 Q1013=
METAR LKMT 250130Z 22003KT CAVOK 08/05 Q1014 NOSIG RMK REG QNH 1009=
METAR LKNA 250100Z 36003KT 240V010 CAVOK 09/05 Q1014=
METAR LKPD 250100Z VRB01KT CAVOK 07/06 Q1013 =
METAR LKPR 250130Z 22007KT CAVOK 07/02 Q1013 NOSIG RMK REG QNH 1009=
METAR LKTB 250130Z VRB01KT CAVOK 07/03 Q1014 NOSIG RMK REG QNH 1009=
METAR LKVO NIL
METAR LOWI 250120Z AUTO 27006KT 9999 NCD 05/02 Q1015=
METAR LOWL 250120Z AUTO VRB01KT 9999 0550E R26/P1500D BCFG NCD 05/05 Q1014=
METAR LOWS 250120Z AUTO 14010KT 9999 NCD 09/03 Q1013=
METAR LOWW 250120Z 17004KT CAVOK 07/05 Q1014 NOSIG=
METAR LZIB 250130Z 35003KT CAVOK 08/06 Q1015=
METAR LZKZ 250130Z VRB01KT CAVOK 08/04 Q1015=
METAR LZPP 250130Z AUTO VRB02KT 9999 NCD 04/02 Q1015=
METAR LZSL 250130Z 00000KT CAVOK 04/03 Q1016=
METAR LZTT 250130Z VRB01KT CAVOK 03/01 Q1015=
METAR LZZI 250130Z 12002KT CAVOK 05/04 Q1015=